Time;durP1;ratioP1;P1;durP2;ratioP2;P2;SDS_P1;SDS_P2;PMS_P1;PMS_P2;Temp;Humidity;BMP_temperature;BMP_pressure;BME280_temperature;BME280_humidity;BME280_pressure;Samples;Min_cycle;Max_cycle;Signal;HPM_P1;HPM_P2
2021/03/16 00:00:16;;;;;;;2.25;0.90;;;;;;;18.81;53.31;102306.63;5051885;28;20572;-70
2021/03/16 00:02:42;;;;;;;3.22;1.30;;;;;;;18.79;53.00;102300.47;5053134;28;20039;-70
2021/03/16 00:05:08;;;;;;;1.92;0.88;;;;;;;18.83;53.31;102315.34;5020457;28;20495;-70
2021/03/16 00:07:33;;;;;;;1.80;0.90;;;;;;;18.83;53.28;102317.97;5037286;28;20032;-70
2021/03/16 00:09:59;;;;;;;1.98;0.85;;;;;;;18.78;53.38;102319.66;5038001;28;20421;-70
2021/03/16 00:12:25;;;;;;;3.40;1.20;;;;;;;18.82;53.31;102325.00;5070995;28;20036;-70
2021/03/16 00:14:50;;;;;;;3.08;1.60;;;;;;;18.74;53.27;102316.09;5071821;28;20070;-70
2021/03/16 00:17:16;;;;;;;2.75;1.52;;;;;;;18.73;53.27;102306.47;5037890;28;20098;-70
2021/03/16 00:19:41;;;;;;;2.72;0.88;;;;;;;18.75;53.23;102323.09;5054174;28;20074;-70
2021/03/16 00:22:07;;;;;;;3.17;0.90;;;;;;;18.78;53.45;102320.53;5071462;28;20513;-70
2021/03/16 00:24:32;;;;;;;2.15;0.70;;;;;;;18.77;53.22;102323.13;5072517;28;20027;-70
2021/03/16 00:26:57;;;;;;;2.65;1.05;;;;;;;18.77;52.99;102323.13;5053075;28;20391;-70
2021/03/16 00:29:23;;;;;;;3.90;1.60;;;;;;;18.78;52.98;102330.16;5053887;28;20471;-70
2021/03/16 00:31:48;;;;;;;2.08;1.00;;;;;;;18.71;53.31;102320.38;5053765;28;20062;-70
2021/03/16 00:34:14;;;;;;;1.63;0.82;;;;;;;18.74;53.29;102329.19;5053419;28;20429;-70
2021/03/16 00:36:39;;;;;;;1.48;0.80;;;;;;;18.75;53.20;102330.97;5071760;28;20020;-70
2021/03/16 00:39:05;;;;;;;4.93;1.40;;;;;;;18.75;53.16;102344.06;5071719;28;20478;-70
2021/03/16 00:41:31;;;;;;;3.63;1.35;;;;;;;18.74;53.14;102342.31;5053571;28;20115;-70
2021/03/16 00:43:57;;;;;;;1.63;0.90;;;;;;;18.66;53.33;102322.94;5071299;28;20060;-70
2021/03/16 00:46:22;;;;;;;2.83;1.23;;;;;;;18.69;53.14;102327.38;5053753;28;20428;-70
2021/03/16 00:48:47;;;;;;;2.22;1.08;;;;;;;18.70;53.31;102334.34;5070654;28;20040;-70
2021/03/16 00:51:13;;;;;;;1.90;1.00;;;;;;;18.74;53.05;102344.03;5053038;28;20028;-70
2021/03/16 00:53:38;;;;;;;1.60;0.90;;;;;;;18.68;53.12;102325.59;5071149;28;20035;-70
2021/03/16 00:56:04;;;;;;;2.42;1.00;;;;;;;18.69;52.97;102343.97;5053848;28;20112;-70
2021/03/16 00:58:30;;;;;;;2.38;1.00;;;;;;;18.71;53.23;102347.47;5052842;28;20028;-70
2021/03/16 01:00:57;;;;;;;1.48;1.00;;;;;;;18.70;53.09;102348.34;5063062;28;20059;-70
2021/03/16 01:03:23;;;;;;;1.90;1.08;;;;;;;18.71;53.09;102346.59;5071009;28;21869;-70
2021/03/16 01:05:49;;;;;;;4.10;1.25;;;;;;;18.66;53.14;102349.16;5053872;28;20067;-70
2021/03/16 01:08:16;;;;;;;1.85;1.02;;;;;;;18.68;52.98;102352.69;5070952;28;20375;-70
2021/03/16 01:10:42;;;;;;;2.35;1.00;;;;;;;18.68;53.19;102347.44;5071827;28;20039;-70
2021/03/16 01:13:07;;;;;;;2.33;1.63;;;;;;;18.65;52.94;102344.75;5052422;28;20024;-70
2021/03/16 01:15:33;;;;;;;2.58;1.10;;;;;;;18.68;53.01;102357.94;5069981;28;20367;-70
2021/03/16 01:17:58;;;;;;;1.95;0.80;;;;;;;18.69;52.83;102361.44;5071463;28;20063;-70
2021/03/16 01:20:25;;;;;;;2.03;1.05;;;;;;;18.64;52.62;102344.72;5052970;28;20029;-70
2021/03/16 01:22:50;;;;;;;1.77;0.93;;;;;;;18.67;52.98;102353.53;5072931;28;20039;-70
2021/03/16 01:25:16;;;;;;;2.70;1.30;;;;;;;18.64;53.02;102345.63;5056452;28;20036;-70
2021/03/16 01:27:41;;;;;;;3.67;1.00;;;;;;;18.68;52.80;102349.19;5056610;28;20098;-70
2021/03/16 01:30:08;;;;;;;1.77;0.80;;;;;;;18.64;52.80;102345.63;5074946;28;20047;-70
2021/03/16 01:32:33;;;;;;;3.92;1.35;;;;;;;18.60;53.04;102346.41;5074174;28;20020;-70
2021/03/16 01:34:59;;;;;;;3.42;1.23;;;;;;;18.65;53.00;102352.63;5074331;28;20402;-70
2021/03/16 01:37:24;;;;;;;2.70;0.90;;;;;;;18.62;52.90;102360.41;5071380;28;20039;-70
2021/03/16 01:39:50;;;;;;;2.38;1.13;;;;;;;18.65;52.97;102355.25;5039966;28;20047;-70
2021/03/16 01:42:16;;;;;;;5.78;1.00;;;;;;;18.65;52.88;102351.75;5074143;28;20550;-70
2021/03/16 01:44:43;;;;;;;2.55;0.98;;;;;;;18.65;52.74;102351.75;5072432;28;20036;-70
2021/03/16 01:47:16;;;;;;;1.38;0.77;;;;;;;18.59;52.88;102351.63;5056582;28;20040;-70
2021/03/16 01:49:42;;;;;;;1.90;1.10;;;;;;;18.64;52.83;102353.47;5055334;28;20115;-70
2021/03/16 01:52:11;;;;;;;2.60;1.00;;;;;;;18.61;52.96;102352.53;5056540;28;20043;-70
2021/03/16 01:54:39;;;;;;;2.28;0.95;;;;;;;18.57;52.88;102349.81;5056178;28;20478;-70
2021/03/16 01:57:07;;;;;;;3.92;1.15;;;;;;;18.61;52.82;102358.66;5055257;28;20474;-70
2021/03/16 01:59:33;;;;;;;2.78;1.15;;;;;;;18.63;52.92;102359.56;5037657;28;20520;-70
2021/03/16 02:01:58;;;;;;;2.13;1.00;;;;;;;18.50;52.94;102336.59;5072518;28;20481;-70
2021/03/16 02:04:24;;;;;;;1.60;0.70;;;;;;;18.52;52.92;102343.63;5039404;28;20035;-70
2021/03/16 02:07:06;;;;;;;2.28;0.90;;;;;;;18.61;52.95;102348.19;5072207;28;20032;-70
2021/03/16 02:09:38;;;;;;;2.15;1.10;;;;;;;18.61;52.82;102361.28;5072251;28;20024;-70
2021/03/16 02:12:15;;;;;;;4.30;1.53;;;;;;;18.54;52.88;102348.91;5055656;28;20024;-70
2021/03/16 02:14:46;;;;;;;2.60;0.93;;;;;;;18.59;52.98;102356.84;5073719;28;20266;-70
2021/03/16 02:17:22;;;;;;;3.10;1.10;;;;;;;18.62;52.54;102359.53;5072995;28;20031;-70
2021/03/16 02:20:02;;;;;;;1.70;0.80;;;;;;;18.59;52.81;102359.47;5073975;28;20053;-70
2021/03/16 02:22:31;;;;;;;1.92;0.95;;;;;;;18.57;52.83;102354.16;5073766;28;20055;-70
2021/03/16 02:25:03;;;;;;;6.28;1.25;;;;;;;18.59;52.81;102347.25;5071966;28;20103;-70
2021/03/16 02:27:40;;;;;;;2.35;1.25;;;;;;;18.51;52.93;102339.25;5073464;28;20107;-70
2021/03/16 02:30:08;;;;;;;2.70;0.80;;;;;;;18.57;52.67;102355.06;5072843;28;20027;-70
2021/03/16 02:32:36;;;;;;;2.83;0.85;;;;;;;18.57;52.92;102356.78;5072880;28;20383;-70
2021/03/16 02:35:05;;;;;;;1.70;0.85;;;;;;;18.57;52.98;102351.53;5074012;28;20032;-70
2021/03/16 02:37:36;;;;;;;2.17;0.82;;;;;;;18.57;52.84;102355.06;5055614;28;20069;-70
2021/03/16 02:40:04;;;;;;;2.83;0.82;;;;;;;18.55;52.86;102348.03;5072489;28;20099;-70
2021/03/16 02:42:33;;;;;;;1.48;0.90;;;;;;;18.48;52.65;102340.91;5039474;28;20024;-70
2021/03/16 02:45:00;;;;;;;3.08;1.27;;;;;;;18.55;53.02;102356.78;5071910;28;20025;-70
2021/03/16 02:47:26;;;;;;;5.07;1.42;;;;;;;18.54;52.57;102355.03;5072606;28;20016;-70
2021/03/16 02:49:52;;;;;;;1.92;1.02;;;;;;;18.54;52.70;102360.25;5038872;28;20031;-70
2021/03/16 02:52:18;;;;;;;1.40;0.93;;;;;;;18.55;52.61;102366.38;5073771;28;20051;-70
2021/03/16 02:54:46;;;;;;;3.72;1.65;;;;;;;18.51;52.61;102354.06;5073648;28;20086;-70
2021/03/16 02:57:12;;;;;;;2.42;0.77;;;;;;;18.54;52.77;102364.63;5038070;28;20116;-70
2021/03/16 02:59:41;;;;;;;3.30;0.90;;;;;;;18.48;52.84;102354.88;5072603;28;20052;-70
2021/03/16 03:02:10;;;;;;;1.88;0.70;;;;;;;18.54;52.71;102372.47;5072738;28;20108;-70
2021/03/16 03:04:36;;;;;;;1.75;0.65;;;;;;;18.47;52.65;102350.50;5055413;28;20062;-70
2021/03/16 03:07:03;;;;;;;2.08;0.88;;;;;;;18.48;52.91;102348.75;5071108;28;20029;-70
2021/03/16 03:09:29;;;;;;;3.33;1.08;;;;;;;18.50;52.91;102357.53;5072886;28;20024;-70
2021/03/16 03:11:54;;;;;;;2.78;0.93;;;;;;;18.46;52.76;102356.59;5054552;28;20069;-70
2021/03/16 03:14:20;;;;;;;3.13;0.88;;;;;;;18.51;52.75;102362.81;5069592;28;20056;-70
2021/03/16 03:16:45;;;;;;;2.72;0.80;;;;;;;18.51;52.73;102367.16;5072965;28;20078;-70
2021/03/16 03:19:10;;;;;;;2.38;1.15;;;;;;;18.50;52.79;102368.91;5038367;28;20105;-70
2021/03/16 03:21:52;;;;;;;1.35;0.80;;;;;;;18.50;52.64;102370.63;5072171;28;20396;-70
2021/03/16 03:24:24;;;;;;;2.58;0.75;;;;;;;18.49;52.87;102367.13;5054818;28;20021;-70
2021/03/16 03:26:56;;;;;;;3.00;1.17;;;;;;;18.49;52.58;102369.75;5072468;28;20374;-70
2021/03/16 03:29:26;;;;;;;1.60;0.77;;;;;;;18.50;52.96;102379.38;5072808;28;20077;-70
2021/03/16 03:31:53;;;;;;;2.45;0.88;;;;;;;18.50;52.78;102378.50;5071399;28;20028;-70
2021/03/16 03:34:19;;;;;;;1.80;0.90;;;;;;;18.47;52.68;102379.31;5072471;28;20505;-70
2021/03/16 03:36:51;;;;;;;4.00;1.63;;;;;;;18.47;52.72;102375.81;5054882;28;20479;-70
2021/03/16 03:39:18;;;;;;;1.50;0.88;;;;;;;18.46;52.60;102377.53;5053727;28;20017;-70
2021/03/16 03:41:43;;;;;;;2.10;0.70;;;;;;;18.48;52.91;102382.81;5071170;28;20044;-70
2021/03/16 03:44:10;;;;;;;1.20;0.70;;;;;;;18.37;52.89;102368.63;5072902;28;20078;-70
2021/03/16 03:46:38;;;;;;;3.80;1.33;;;;;;;18.46;52.42;102381.91;5071668;28;20115;-70
2021/03/16 03:49:04;;;;;;;2.17;0.90;;;;;;;18.47;52.53;102383.66;5054205;28;20441;-70
2021/03/16 03:51:31;;;;;;;1.70;0.90;;;;;;;18.40;52.63;102376.56;5063411;28;20040;-70
2021/03/16 03:54:00;;;;;;;3.25;1.27;;;;;;;18.41;52.57;102381.84;5054349;28;20078;-70
2021/03/16 03:56:29;;;;;;;3.85;1.38;;;;;;;18.40;52.67;102389.66;5071912;28;20054;-70
2021/03/16 03:58:58;;;;;;;2.20;0.75;;;;;;;18.44;52.47;102397.59;5071778;28;20027;-70
2021/03/16 04:01:25;;;;;;;2.13;0.75;;;;;;;18.42;52.39;102391.47;5054432;28;20103;-70
2021/03/16 04:03:51;;;;;;;1.85;0.90;;;;;;;18.43;52.47;102393.22;5071782;28;20029;-70
2021/03/16 04:06:18;;;;;;;2.60;1.00;;;;;;;18.39;52.38;102393.13;5039455;28;20574;-70
2021/03/16 04:08:44;;;;;;;2.63;1.73;;;;;;;18.39;52.50;102390.50;5068613;28;20047;-70
2021/03/16 04:11:10;;;;;;;1.58;0.80;;;;;;;18.39;52.30;102394.00;5071331;28;20479;-70
2021/03/16 04:13:38;;;;;;;3.00;1.08;;;;;;;18.39;52.45;102390.50;5037484;28;20032;-70
2021/03/16 04:16:05;;;;;;;2.85;1.15;;;;;;;18.39;52.44;102393.13;5070834;28;20029;-70
2021/03/16 04:18:31;;;;;;;2.42;0.77;;;;;;;18.43;52.68;102413.31;5053177;28;20545;-70
2021/03/16 04:20:56;;;;;;;2.00;0.80;;;;;;;18.40;52.77;102402.75;5053646;28;20047;-70
2021/03/16 04:23:23;;;;;;;1.98;0.93;;;;;;;18.40;52.56;102408.88;5071633;28;20110;-70
2021/03/16 04:25:48;;;;;;;1.98;1.05;;;;;;;18.39;52.34;102409.72;5052586;28;20499;-70
2021/03/16 04:28:14;;;;;;;1.98;0.80;;;;;;;18.42;52.54;102408.91;5048449;28;20055;-70
2021/03/16 04:30:39;;;;;;;1.50;0.60;;;;;;;18.38;52.58;102410.56;5053235;28;20041;-70
2021/03/16 04:33:04;;;;;;;1.90;1.27;;;;;;;18.35;52.76;102405.25;5071285;28;20055;-70
2021/03/16 04:35:30;;;;;;;1.60;0.80;;;;;;;18.38;52.68;102410.56;5071457;28;20025;-70
2021/03/16 04:37:55;;;;;;;1.35;0.65;;;;;;;18.42;52.50;102422.00;5071518;28;22082;-70
2021/03/16 04:40:21;;;;;;;2.47;0.85;;;;;;;18.40;52.46;102415.84;5052584;28;20268;-70
2021/03/16 04:42:46;;;;;;;3.03;0.80;;;;;;;18.34;52.54;102411.34;5054816;28;20154;-70
2021/03/16 04:45:12;;;;;;;1.65;0.73;;;;;;;18.39;52.67;102422.81;5071347;28;20063;-70
2021/03/16 04:47:38;;;;;;;3.20;1.15;;;;;;;18.39;52.70;102427.19;5037038;28;20033;-70
2021/03/16 04:50:04;;;;;;;3.65;1.10;;;;;;;18.40;52.50;102431.56;5053605;28;21951;-70
2021/03/16 04:52:29;;;;;;;2.80;1.00;;;;;;;18.39;52.57;102428.06;5071721;28;20032;-70
2021/03/16 04:54:54;;;;;;;1.95;1.17;;;;;;;18.38;52.60;102431.53;5075415;28;20062;-70
2021/03/16 04:57:20;;;;;;;1.65;0.95;;;;;;;18.38;52.41;102441.13;5075033;28;20505;-70
2021/03/16 04:59:45;;;;;;;2.40;1.23;;;;;;;18.39;52.56;102442.88;5074754;28;20446;-70
2021/03/16 05:02:11;;;;;;;1.10;0.43;;;;;;;18.37;52.57;102442.84;5041224;28;20052;-74
2021/03/16 05:04:36;;;;;;;1.80;0.70;;;;;;;18.38;52.52;102451.59;5075796;28;20112;-74
2021/03/16 05:07:01;;;;;;;2.72;1.00;;;;;;;18.36;52.68;102443.69;5057325;28;20127;-74
2021/03/16 05:09:27;;;;;;;2.50;1.20;;;;;;;18.24;52.50;102421.63;5074276;28;20043;-74
2021/03/16 05:11:53;;;;;;;2.78;0.70;;;;;;;18.36;52.52;102442.81;5058085;28;20068;-74
2021/03/16 05:14:18;;;;;;;1.60;1.08;;;;;;;18.31;52.59;102437.47;5054749;28;20024;-74
2021/03/16 05:16:45;;;;;;;2.78;0.50;;;;;;;18.29;52.58;102441.81;5072718;28;20055;-75
2021/03/16 05:19:10;;;;;;;2.15;0.90;;;;;;;18.33;52.57;102441.00;5075505;28;20534;-72
2021/03/16 05:21:36;;;;;;;2.42;1.00;;;;;;;18.40;52.64;102461.25;5057315;28;20040;-73
2021/03/16 05:24:01;;;;;;;1.52;0.80;;;;;;;18.49;52.57;102456.19;5075783;28;20054;-73
2021/03/16 05:26:27;;;;;;;3.08;1.13;;;;;;;18.61;52.13;102452.09;5074731;28;20047;-73
2021/03/16 05:28:52;;;;;;;1.70;0.95;;;;;;;18.55;51.99;102453.72;5075378;28;20056;-73
2021/03/16 05:31:17;;;;;;;4.68;1.45;;;;;;;18.55;52.03;102450.22;5040141;28;20032;-72
2021/03/16 05:33:43;;;;;;;2.50;0.88;;;;;;;18.65;51.97;102456.56;5057651;28;20047;-72
2021/03/16 05:36:08;;;;;;;1.25;0.80;;;;;;;18.69;51.54;102446.16;5040794;28;20064;-72
2021/03/16 05:38:34;;;;;;;1.77;0.73;;;;;;;18.68;52.05;102449.66;5056419;28;20028;-73
2021/03/16 05:41:00;;;;;;;1.20;0.80;;;;;;;18.71;51.93;102462.78;5072564;28;20032;-73
2021/03/16 05:43:25;;;;;;;0.73;0.70;;;;;;;18.77;51.93;102457.69;5075310;28;20028;-75
2021/03/16 05:45:55;;;;;;;2.53;0.88;;;;;;;18.86;51.59;102465.72;5073775;28;20121;-76
2021/03/16 05:48:23;;;;;;;5.18;0.90;;;;;;;18.82;51.79;102457.78;5074884;28;20032;-74
2021/03/16 05:50:49;;;;;;;1.48;0.50;;;;;;;18.82;51.86;102463.03;5074742;28;20055;-74
2021/03/16 05:53:15;;;;;;;1.27;0.75;;;;;;;18.75;51.95;102448.91;5057278;28;20040;-74
2021/03/16 05:55:41;;;;;;;2.13;0.40;;;;;;;18.77;51.69;102441.94;5070503;28;20459;-74
2021/03/16 05:58:06;;;;;;;4.22;1.88;;;;;;;18.88;51.61;102466.63;5073179;28;20093;-74
2021/03/16 06:00:33;;;;;;;1.95;0.85;;;;;;;18.86;51.71;102459.59;5054034;28;20048;-74
2021/03/16 06:02:59;;;;;;;1.92;0.95;;;;;;;18.87;51.84;102458.72;5053076;28;20491;-74
2021/03/16 06:05:24;;;;;;;1.20;0.50;;;;;;;18.94;51.56;102462.38;5073446;28;20036;-74
2021/03/16 06:07:51;;;;;;;1.60;0.70;;;;;;;18.94;51.61;102470.22;5057088;28;20035;-74
2021/03/16 06:10:21;;;;;;;3.40;0.80;;;;;;;18.85;51.82;102453.44;5074851;28;20490;-74
2021/03/16 06:12:47;;;;;;;3.03;0.77;;;;;;;18.85;51.87;102450.84;5075508;28;20028;-74
2021/03/16 06:15:16;;;;;;;4.45;0.80;;;;;;;19.00;51.66;102451.97;5075293;28;20037;-74
2021/03/16 06:17:52;;;;;;;1.90;0.70;;;;;;;18.96;51.60;102448.41;5074896;28;20025;-74
2021/03/16 06:20:26;;;;;;;2.65;0.90;;;;;;;18.95;51.63;102448.41;5074441;28;20017;-74
2021/03/16 06:23:12;;;;;;;1.42;0.60;;;;;;;19.00;51.52;102455.47;5074358;28;20070;-75
2021/03/16 06:25:40;;;;;;;5.25;1.42;;;;;;;19.05;51.29;102452.97;5074600;28;20032;-74
2021/03/16 06:28:07;;;;;;;1.50;0.77;;;;;;;19.06;51.47;102455.59;5074158;28;20476;-74
2021/03/16 06:30:33;;;;;;;3.67;1.10;;;;;;;19.00;51.36;102463.34;5074132;28;20078;-74
2021/03/16 06:32:59;;;;;;;2.72;0.95;;;;;;;19.01;51.42;102451.13;5036039;28;20039;-75
2021/03/16 06:35:25;;;;;;;6.63;2.38;;;;;;;19.03;50.78;102450.31;5045561;28;20024;-74
2021/03/16 06:38:06;;;;;;;4.13;1.70;;;;;;;18.96;51.19;102453.66;5074053;28;20020;-74
2021/03/16 06:40:33;;;;;;;6.63;2.08;;;;;;;18.91;50.97;102450.06;5073975;28;20024;-75
2021/03/16 06:43:09;;;;;;;9.82;2.33;;;;;;;19.04;51.05;102459.06;5074264;28;20030;-75
2021/03/16 06:45:36;;;;;;;15.23;3.35;;;;;;;19.01;51.11;102459.88;5059627;28;20078;-74
2021/03/16 06:48:22;;;;;;;6.63;2.42;;;;;;;19.00;51.33;102476.47;5056483;28;20127;-75
2021/03/16 06:50:49;;;;;;;4.45;1.85;;;;;;;19.04;51.22;102472.16;5074422;28;20075;-76
2021/03/16 06:53:21;;;;;;;6.75;2.72;;;;;;;19.05;51.36;102472.19;5047285;28;20029;-75
2021/03/16 06:55:57;;;;;;;6.13;2.97;;;;;;;19.02;51.35;102463.38;5074203;28;20020;-75
2021/03/16 06:58:33;;;;;;;5.43;3.10;;;;;;;19.01;51.35;102462.50;5073030;28;20043;-74
2021/03/16 07:01:09;;;;;;;8.90;2.90;;;;;;;19.04;51.37;102459.06;5073752;28;20376;-74
2021/03/16 07:03:38;;;;;;;6.00;2.55;;;;;;;19.00;51.44;102465.97;5064046;28;20016;-72
2021/03/16 07:06:08;;;;;;;7.57;3.03;;;;;;;18.99;51.44;102465.94;5073892;28;20558;-74
2021/03/16 07:08:35;;;;;;;4.13;1.98;;;;;;;19.09;51.38;102473.13;5073372;28;20028;-74
2021/03/16 07:11:06;;;;;;;4.55;2.17;;;;;;;19.05;51.19;102463.44;5055457;28;20028;-73
2021/03/16 07:13:33;;;;;;;5.28;1.98;;;;;;;19.01;51.76;102464.22;5072296;28;20555;-76
2021/03/16 07:16:00;;;;;;;4.22;1.70;;;;;;;19.10;51.58;102480.13;5072628;28;20027;-74
2021/03/16 07:18:27;;;;;;;7.45;2.75;;;;;;;19.06;51.45;102473.97;5056468;28;20036;-74
2021/03/16 07:20:57;;;;;;;6.88;2.60;;;;;;;19.06;51.55;102478.31;5073362;28;20028;-75
2021/03/16 07:23:25;;;;;;;5.88;2.63;;;;;;;19.01;51.69;102474.72;5073268;28;20036;-74
2021/03/16 07:25:52;;;;;;;9.50;2.90;;;;;;;19.02;51.46;102476.50;5055688;28;20382;-75
2021/03/16 07:28:19;;;;;;;5.32;1.92;;;;;;;19.09;51.54;102483.59;5073094;28;20166;-78
2021/03/16 07:30:44;;;;;;;5.07;2.30;;;;;;;19.04;51.41;102478.28;5073445;28;20039;-75
2021/03/16 07:33:13;;;;;;;4.45;2.55;;;;;;;19.10;51.38;102482.75;5055113;28;20457;-75
2021/03/16 07:35:39;;;;;;;5.38;2.72;;;;;;;19.13;51.36;102488.06;5073693;28;20020;-74
2021/03/16 07:38:04;;;;;;;7.25;2.20;;;;;;;19.16;51.42;102496.88;5049541;28;20090;-75
2021/03/16 07:40:30;;;;;;;5.43;1.83;;;;;;;19.22;51.11;102493.47;5034959;28;20067;-74
2021/03/16 07:42:55;;;;;;;3.88;1.70;;;;;;;19.21;51.25;102489.09;5049700;28;20029;-75
2021/03/16 07:45:27;;;;;;;7.88;2.38;;;;;;;19.21;51.26;102487.34;5060130;28;20417;-75
2021/03/16 07:47:53;;;;;;;3.28;1.63;;;;;;;19.22;51.26;102493.47;5055281;28;20034;-75
2021/03/16 07:50:26;;;;;;;3.55;2.05;;;;;;;19.24;51.08;102487.38;5042232;28;20441;-75
2021/03/16 07:52:52;;;;;;;4.38;1.77;;;;;;;19.23;51.08;102495.22;5064145;28;20032;-75
2021/03/16 07:55:28;;;;;;;4.20;1.65;;;;;;;19.25;51.27;102498.78;5039556;28;20056;-75
2021/03/16 07:58:06;;;;;;;2.35;1.58;;;;;;;19.31;51.03;102492.75;5018981;28;20033;-75
2021/03/16 08:00:31;;;;;;;3.88;1.35;;;;;;;19.29;50.98;102495.34;5040743;28;20053;-74
2021/03/16 08:02:58;;;;;;;4.22;2.13;;;;;;;19.22;51.05;102482.97;5055354;28;20090;-75
2021/03/16 08:05:24;;;;;;;3.28;1.90;;;;;;;19.27;51.32;102503.19;5073126;28;20021;-75
2021/03/16 08:07:49;;;;;;;2.58;1.30;;;;;;;19.30;50.98;102494.50;5067091;28;20032;-75
2021/03/16 08:10:25;;;;;;;5.53;1.88;;;;;;;19.28;50.99;102499.72;5071848;28;20085;-75
2021/03/16 08:13:02;;;;;;;3.90;1.60;;;;;;;19.23;51.05;102477.75;5055138;28;20097;-75
2021/03/16 08:15:42;;;;;;;3.50;1.60;;;;;;;19.35;50.80;102495.44;5055187;28;20107;-75
2021/03/16 08:18:07;;;;;;;5.18;1.90;;;;;;;19.37;50.93;102498.09;5072146;28;20032;-75
2021/03/16 08:20:33;;;;;;;4.65;1.50;;;;;;;19.28;51.07;102497.09;5055267;28;20032;-74
2021/03/16 08:23:12;;;;;;;4.18;2.03;;;;;;;19.38;50.83;102499.88;5058605;28;20478;-75
2021/03/16 08:25:42;;;;;;;2.65;1.30;;;;;;;19.36;50.86;102496.34;5035033;28;20087;-75
2021/03/16 08:28:12;;;;;;;2.45;1.45;;;;;;;19.30;51.04;102504.09;5055740;28;20111;-75
2021/03/16 08:30:38;;;;;;;3.75;1.20;;;;;;;19.40;51.01;102514.78;5059138;28;20035;-75
2021/03/16 08:33:15;;;;;;;2.45;1.27;;;;;;;19.44;50.98;102527.13;5061782;28;20076;-75
2021/03/16 08:35:50;;;;;;;3.10;1.52;;;;;;;19.40;50.75;102517.41;5058835;28;20062;-75
2021/03/16 08:38:27;;;;;;;2.40;1.27;;;;;;;19.32;50.91;102505.91;5049286;28;20032;-75
2021/03/16 08:41:06;;;;;;;3.75;1.50;;;;;;;19.46;50.86;102516.66;5065543;28;20401;-75
2021/03/16 08:43:32;;;;;;;4.65;1.45;;;;;;;19.45;50.74;102531.50;5067220;28;20471;-75
2021/03/16 08:45:59;;;;;;;1.95;0.90;;;;;;;19.44;50.91;102534.09;5076496;28;20371;-75
2021/03/16 08:48:28;;;;;;;1.50;1.13;;;;;;;19.48;50.80;102522.78;5069694;28;20051;-75
2021/03/16 08:50:55;;;;;;;2.63;1.10;;;;;;;19.46;50.81;102517.53;5040322;28;20487;-75
2021/03/16 08:53:20;;;;;;;4.97;1.20;;;;;;;19.44;50.51;102519.25;5076505;28;20082;-75
2021/03/16 08:55:51;;;;;;;3.95;1.45;;;;;;;19.46;50.70;102533.28;5042266;28;20099;-75
2021/03/16 08:58:17;;;;;;;2.45;1.27;;;;;;;19.41;50.72;102531.41;5076443;28;20028;-75
2021/03/16 09:00:44;;;;;;;2.47;1.20;;;;;;;19.41;50.90;102537.53;5058093;28;20057;-75
2021/03/16 09:03:10;;;;;;;1.77;1.17;;;;;;;19.39;51.01;102528.75;5058465;28;20422;-71
2021/03/16 09:05:36;;;;;;;1.85;0.95;;;;;;;19.37;51.12;102532.19;5067464;28;20025;-70
2021/03/16 09:08:02;;;;;;;2.80;1.40;;;;;;;19.36;51.09;102533.06;5069646;28;20044;-71
2021/03/16 09:10:28;;;;;;;5.88;1.48;;;;;;;19.26;51.21;102524.16;5069308;28;20032;-71
2021/03/16 09:12:54;;;;;;;3.03;1.30;;;;;;;19.31;51.16;102540.88;5056745;28;20117;-70
2021/03/16 09:15:33;;;;;;;2.88;1.08;;;;;;;19.24;51.57;102528.47;5043001;28;20479;-70
2021/03/16 09:18:01;;;;;;;3.17;1.70;;;;;;;19.25;51.34;102531.13;5038366;28;20028;-74
2021/03/16 09:20:29;;;;;;;1.75;1.00;;;;;;;19.25;51.35;102532.88;5051137;28;20017;-74
2021/03/16 09:22:58;;;;;;;5.88;1.63;;;;;;;19.23;51.32;102531.94;5056428;28;20162;-73
2021/03/16 09:25:25;;;;;;;2.77;1.30;;;;;;;19.23;51.48;102529.31;5073155;28;20021;-75
2021/03/16 09:27:51;;;;;;;2.83;1.75;;;;;;;19.21;51.36;102536.31;5056698;28;20043;-74
2021/03/16 09:30:18;;;;;;;2.10;0.82;;;;;;;19.18;51.33;102526.63;5051509;28;20028;-75
2021/03/16 09:32:44;;;;;;;2.75;1.52;;;;;;;19.31;51.17;102537.34;5044481;28;20025;-74
2021/03/16 09:35:13;;;;;;;2.83;1.58;;;;;;;19.28;50.99;102540.81;5065461;28;20091;-74
2021/03/16 09:37:47;;;;;;;2.90;1.10;;;;;;;19.33;51.19;102541.78;5071482;28;20028;-74
2021/03/16 09:40:14;;;;;;;2.10;1.55;;;;;;;19.38;51.07;102540.09;5051101;28;20032;-75
2021/03/16 09:42:44;;;;;;;1.45;0.98;;;;;;;19.36;50.75;102533.06;5067613;28;20025;-74
2021/03/16 09:45:22;;;;;;;1.88;0.77;;;;;;;19.37;50.95;102540.97;5066797;28;20111;-76
2021/03/16 09:47:48;;;;;;;2.05;1.20;;;;;;;19.41;50.89;102542.78;5073700;28;20040;-75
2021/03/16 09:50:22;;;;;;;1.52;0.70;;;;;;;19.45;50.77;102538.50;5073306;28;20048;-74
2021/03/16 09:52:56;;;;;;;1.92;1.15;;;;;;;19.40;51.07;102522.66;5052144;28;20067;-75
2021/03/16 09:55:24;;;;;;;1.92;0.80;;;;;;;19.41;50.97;102528.78;5062096;28;20028;-75
2021/03/16 09:57:49;;;;;;;2.08;0.80;;;;;;;19.46;50.90;102535.00;5074903;28;20095;-75
2021/03/16 10:00:15;;;;;;;1.92;1.17;;;;;;;19.41;50.83;102521.81;5075511;28;20123;-75
2021/03/16 10:02:41;;;;;;;1.85;0.98;;;;;;;19.46;50.94;102540.25;5057252;28;20029;-75
2021/03/16 10:05:12;;;;;;;1.90;0.70;;;;;;;19.47;50.76;102535.03;5075039;28;20039;-75
2021/03/16 10:07:38;;;;;;;1.80;1.00;;;;;;;19.49;50.91;102530.72;5075247;28;20482;-74
2021/03/16 10:10:11;;;;;;;2.53;1.17;;;;;;;19.50;50.71;102531.59;5073965;28;20049;-74
2021/03/16 10:12:37;;;;;;;1.38;0.60;;;;;;;19.46;50.84;102535.00;5057064;28;20074;-74
2021/03/16 10:15:04;;;;;;;1.42;0.85;;;;;;;19.47;50.72;102526.28;5075037;28;20039;-74
2021/03/16 10:17:31;;;;;;;2.35;0.80;;;;;;;19.51;50.72;102523.75;5039823;28;20021;-74
2021/03/16 10:19:59;;;;;;;2.55;0.70;;;;;;;19.47;50.70;102527.19;5055746;28;20536;-75
2021/03/16 10:22:33;;;;;;;1.55;0.98;;;;;;;19.52;50.64;102524.66;5020942;28;20025;-75
2021/03/16 10:25:02;;;;;;;1.10;0.63;;;;;;;19.56;50.60;102529.97;5055867;28;20016;-74
2021/03/16 10:27:32;;;;;;;1.77;0.88;;;;;;;19.55;50.50;102535.19;5068166;28;20116;-75
2021/03/16 10:30:05;;;;;;;1.70;0.90;;;;;;;19.55;50.82;102533.47;5074832;28;20036;-75
2021/03/16 10:32:31;;;;;;;;;;;;;;;19.57;50.58;102533.50;5068102;28;20479;-75
2021/03/16 10:34:56;;;;;;;1.27;0.77;;;;;;;19.55;50.58;102530.84;5074595;28;19908;-75
2021/03/16 10:37:24;;;;;;;1.73;0.88;;;;;;;19.53;50.73;102526.41;5051770;28;20278;-75
2021/03/16 10:39:49;;;;;;;3.08;0.80;;;;;;;19.53;50.80;102537.78;5064329;28;20107;-76
2021/03/16 10:42:15;;;;;;;1.75;0.90;;;;;;;19.49;50.88;102538.59;5067691;28;20120;-75
2021/03/16 10:44:41;;;;;;;2.78;1.05;;;;;;;19.44;50.92;102542.84;5074142;28;20036;-75
2021/03/16 10:47:07;;;;;;;1.25;0.75;;;;;;;19.44;50.99;102547.22;5051538;28;20032;-75
2021/03/16 10:49:33;;;;;;;1.15;0.70;;;;;;;19.44;51.05;102549.84;5022445;28;20399;-75
2021/03/16 10:51:59;;;;;;;1.13;0.60;;;;;;;19.38;51.13;102537.47;5063520;28;20143;-75
2021/03/16 10:54:25;;;;;;;0.90;0.60;;;;;;;19.40;51.12;102535.78;5074195;28;20081;-75
2021/03/16 10:56:56;;;;;;;1.10;0.60;;;;;;;19.39;51.04;102547.13;5073943;28;20416;-74
2021/03/16 10:59:22;;;;;;;1.08;0.60;;;;;;;19.39;51.07;102551.47;5058779;28;20419;-75
2021/03/16 11:01:49;;;;;;;1.30;0.50;;;;;;;19.39;51.04;102548.88;5045819;28;20053;-75
2021/03/16 11:04:14;;;;;;;1.30;0.70;;;;;;;19.36;50.74;102546.16;5044731;28;20034;-75
2021/03/16 11:06:40;;;;;;;1.73;0.50;;;;;;;19.31;51.00;102538.25;5034511;28;20029;-74
2021/03/16 11:09:05;;;;;;;0.90;0.43;;;;;;;19.32;50.89;102541.75;5049815;28;20029;-75
2021/03/16 11:11:31;;;;;;;1.63;0.80;;;;;;;19.34;51.01;102538.31;5053284;28;20198;-75
2021/03/16 11:13:56;;;;;;;1.55;0.90;;;;;;;19.29;50.98;102532.06;5051873;28;20041;-74
2021/03/16 11:16:21;;;;;;;1.40;0.68;;;;;;;19.27;51.14;102529.41;5028940;28;20029;-75
2021/03/16 11:18:47;;;;;;;1.80;1.10;;;;;;;19.34;51.00;102534.78;5014949;28;20107;-75
2021/03/16 11:21:12;;;;;;;2.15;0.80;;;;;;;19.34;51.15;102534.78;5051193;28;20125;-77
2021/03/16 11:23:37;;;;;;;0.98;0.50;;;;;;;19.32;51.19;102542.63;5053548;28;20029;-76
2021/03/16 11:26:03;;;;;;;0.68;0.50;;;;;;;19.32;51.05;102536.50;5048715;28;20040;-75